Time;durP1;ratioP1;P1;durP2;ratioP2;P2;SDS_P1;SDS_P2;PMS_P1;PMS_P2;Temp;Humidity;BMP_temperature;BMP_pressure;BME280_temperature;BME280_humidity;BME280_pressure;Samples;Min_cycle;Max_cycle;Signal;HPM_P1;HPM_P2
2021/12/12 00:00:47;;;;;;;5.93;0.93;;;;;;;;;;5075448;28;20024;-25
2021/12/12 00:03:21;;;;;;;4.18;0.93;;;;;;;;;;5074303;28;20340;-25
2021/12/12 00:05:49;;;;;;;3.83;0.90;;;;;;;;;;5074812;28;20437;-25
2021/12/12 00:08:18;;;;;;;7.68;1.55;;;;;;;;;;5074919;28;20039;-25
2021/12/12 00:10:46;;;;;;;4.40;1.13;;;;;;;;;;5075274;28;20402;-25
2021/12/12 00:13:14;;;;;;;5.93;1.45;;;;;;;;;;5074855;28;20025;-25
2021/12/12 00:15:41;;;;;;;4.50;1.95;;;;;;;;;;5075124;28;20035;-25
2021/12/12 00:18:10;;;;;;;6.65;1.55;;;;;;;;;;5074802;28;20025;-25
2021/12/12 00:20:39;;;;;;;5.90;1.10;;;;;;;;;;5074781;28;20385;-25
2021/12/12 00:23:06;;;;;;;4.55;1.50;;;;;;;;;;5073577;28;20051;-25
2021/12/12 00:25:35;;;;;;;5.03;1.48;;;;;;;;;;5074730;28;20021;-25
2021/12/12 00:28:04;;;;;;;3.08;0.98;;;;;;;;;;5074922;28;20462;-25
2021/12/12 00:30:33;;;;;;;3.70;1.33;;;;;;;;;;5074679;28;20087;-25
2021/12/12 00:32:59;;;;;;;3.92;1.08;;;;;;;;;;5074546;28;20103;-25
2021/12/12 00:35:26;;;;;;;2.90;1.10;;;;;;;;;;5074907;28;20021;-25
2021/12/12 00:37:58;;;;;;;3.78;1.30;;;;;;;;;;5073548;28;20040;-25
2021/12/12 00:40:33;;;;;;;4.18;1.25;;;;;;;;;;5073490;28;20451;-25
2021/12/12 00:43:03;;;;;;;5.93;1.15;;;;;;;;;;5074658;28;20024;-26
2021/12/12 00:45:29;;;;;;;3.20;1.23;;;;;;;;;;5074763;28;20449;-25
2021/12/12 00:47:57;;;;;;;2.78;0.82;;;;;;;;;;5074453;28;20020;-25
2021/12/12 00:50:28;;;;;;;3.60;0.82;;;;;;;;;;5074647;28;20425;-25
2021/12/12 00:52:55;;;;;;;6.93;1.10;;;;;;;;;;5073282;28;20049;-25
2021/12/12 00:55:22;;;;;;;5.28;0.98;;;;;;;;;;5074389;28;20024;-25
2021/12/12 00:57:52;;;;;;;4.60;1.08;;;;;;;;;;5074636;28;20029;-25
2021/12/12 01:00:24;;;;;;;4.85;1.55;;;;;;;;;;5074600;28;20016;-25
2021/12/12 01:02:52;;;;;;;5.47;1.50;;;;;;;;;;5074464;28;20035;-25
2021/12/12 01:05:21;;;;;;;4.60;0.95;;;;;;;;;;5074646;28;20044;-25
2021/12/12 01:07:48;;;;;;;4.85;1.05;;;;;;;;;;5078744;28;20032;-25
2021/12/12 01:13:18;;;;;;;3.05;1.00;;;;;;;;;;5078816;28;20086;-25
2021/12/12 01:15:54;;;;;;;1.58;0.82;;;;;;;;;;5078376;28;20383;-25
2021/12/12 01:18:25;;;;;;;4.25;1.48;;;;;;;;;;5078579;28;20032;-25
2021/12/12 01:20:56;;;;;;;6.03;0.90;;;;;;;;;;5078491;28;20442;-25
2021/12/12 01:23:29;;;;;;;4.95;1.20;;;;;;;;;;5078284;28;20058;-25
2021/12/12 01:25:56;;;;;;;3.83;0.88;;;;;;;;;;5077098;28;20061;-25
2021/12/12 01:28:25;;;;;;;5.05;0.88;;;;;;;;;;5078291;28;20032;-25
2021/12/12 01:30:52;;;;;;;3.65;0.95;;;;;;;;;;5077977;28;20024;-25
2021/12/12 01:33:32;;;;;;;;;;;;;;;;;;5078224;28;20515;-25
2021/12/12 01:36:00;;;;;;;2.83;0.80;;;;;;;;;;5076857;28;19963;-25
2021/12/12 01:41:12;;;;;;;3.95;0.98;;;;;;;;;;5078130;28;20098;-25
2021/12/12 01:43:48;;;;;;;3.50;1.00;;;;;;;;;;5077620;28;20107;-25
2021/12/12 01:46:21;;;;;;;3.58;0.82;;;;;;;;;;5077942;28;20469;-26
2021/12/12 01:49:08;;;;;;;2.15;0.77;;;;;;;;;;5077582;28;20028;-25
2021/12/12 01:51:35;;;;;;;4.50;0.80;;;;;;;;;;5076476;28;20036;-25
2021/12/12 01:54:03;;;;;;;7.15;1.50;;;;;;;;;;5077443;28;20032;-25
2021/12/12 01:56:49;;;;;;;5.55;1.20;;;;;;;;;;5077184;28;20115;-25
2021/12/12 01:59:19;;;;;;;4.43;1.20;;;;;;;;;;5076316;28;20410;-25
2021/12/12 02:01:48;;;;;;;3.83;0.95;;;;;;;;;;5077654;28;20458;-25
2021/12/12 02:04:17;;;;;;;4.18;1.02;;;;;;;;;;5076919;28;20032;-25
2021/12/12 02:06:46;;;;;;;2.25;0.77;;;;;;;;;;5077337;28;20083;-25
2021/12/12 02:09:15;;;;;;;1.55;0.60;;;;;;;;;;5077216;28;20024;-25
2021/12/12 02:11:43;;;;;;;4.00;1.02;;;;;;;;;;5076464;28;20123;-25
2021/12/12 02:14:13;;;;;;;2.60;0.80;;;;;;;;;;5077088;28;20028;-25
2021/12/12 02:16:44;;;;;;;2.70;0.77;;;;;;;;;;5075826;28;20055;-25
2021/12/12 02:19:11;;;;;;;4.13;0.82;;;;;;;;;;5077073;28;20364;-25
2021/12/12 02:21:45;;;;;;;;;;;;;;;;;;5077388;28;20039;-25
2021/12/12 02:35:08;;;;;;;2.45;0.63;;;;;;;;;;5077464;28;20036;-25
2021/12/12 02:35:21;;;;;;;3.43;1.17;;;;;;;;;;5077140;28;20115;-25
2021/12/12 02:37:49;;;;;;;2.25;0.80;;;;;;;;;;5077028;28;20036;-26
2021/12/12 02:40:18;;;;;;;4.53;0.98;;;;;;;;;;5076973;28;20069;-25
2021/12/12 02:42:46;;;;;;;3.60;0.98;;;;;;;;;;5076544;28;20061;-25
2021/12/12 02:45:16;;;;;;;2.83;0.98;;;;;;;;;;5076595;28;20341;-25
2021/12/12 02:47:43;;;;;;;5.25;1.45;;;;;;;;;;5076515;28;20028;-25
2021/12/12 02:50:15;;;;;;;6.80;1.20;;;;;;;;;;5076388;28;20031;-25
2021/12/12 02:52:44;;;;;;;3.92;0.70;;;;;;;;;;5076571;28;20043;-25
2021/12/12 02:55:13;;;;;;;5.05;0.93;;;;;;;;;;5076664;28;20170;-25
2021/12/12 02:57:40;;;;;;;4.20;1.05;;;;;;;;;;5076648;28;20028;-25
2021/12/12 03:00:08;;;;;;;2.10;0.68;;;;;;;;;;5076320;28;20099;-25
2021/12/12 03:02:43;;;;;;;2.95;0.88;;;;;;;;;;5076186;28;20476;-25
2021/12/12 03:05:09;;;;;;;5.00;1.27;;;;;;;;;;5074795;28;20501;-25
2021/12/12 03:07:36;;;;;;;4.50;1.10;;;;;;;;;;5076214;28;20017;-25
2021/12/12 03:10:04;;;;;;;2.93;0.77;;;;;;;;;;5076176;28;20390;-25
2021/12/12 03:12:33;;;;;;;2.90;1.00;;;;;;;;;;5076181;28;20081;-25
2021/12/12 03:15:09;;;;;;;2.72;0.70;;;;;;;;;;5076001;28;20452;-25
2021/12/12 03:17:37;;;;;;;2.30;0.70;;;;;;;;;;5075897;28;20029;-25
2021/12/12 03:20:09;;;;;;;6.38;1.40;;;;;;;;;;5076123;28;20036;-25
2021/12/12 03:22:37;;;;;;;2.60;0.80;;;;;;;;;;5075783;28;20039;-25
2021/12/12 03:25:04;;;;;;;5.63;1.48;;;;;;;;;;5075891;28;20033;-25
2021/12/12 03:27:30;;;;;;;4.68;1.00;;;;;;;;;;5074464;28;20039;-25
2021/12/12 03:29:57;;;;;;;5.87;0.80;;;;;;;;;;5075288;28;20054;-25
2021/12/12 03:32:23;;;;;;;3.50;1.30;;;;;;;;;;5075794;28;20021;-25
2021/12/12 03:34:52;;;;;;;1.98;0.73;;;;;;;;;;5075509;28;20259;-26
2021/12/12 03:37:21;;;;;;;3.13;0.68;;;;;;;;;;5075744;28;20120;-25
2021/12/12 03:39:52;;;;;;;2.45;0.80;;;;;;;;;;5074454;28;20024;-25
2021/12/12 03:42:22;;;;;;;3.45;0.63;;;;;;;;;;5074387;28;20036;-25
2021/12/12 03:44:49;;;;;;;2.92;0.90;;;;;;;;;;5075585;28;20032;-25
2021/12/12 03:47:21;;;;;;;2.65;0.98;;;;;;;;;;5075622;28;20021;-25
2021/12/12 03:49:48;;;;;;;2.42;0.80;;;;;;;;;;5075591;28;20390;-25
2021/12/12 03:52:16;;;;;;;4.45;1.20;;;;;;;;;;5074241;28;20021;-25
2021/12/12 03:54:44;;;;;;;2.30;0.90;;;;;;;;;;5075306;28;20024;-25
2021/12/12 03:57:12;;;;;;;1.95;0.80;;;;;;;;;;5075146;28;20036;-25
2021/12/12 03:59:39;;;;;;;3.47;0.60;;;;;;;;;;5074141;28;20028;-25
2021/12/12 04:02:06;;;;;;;1.55;0.68;;;;;;;;;;5075049;28;20024;-25
2021/12/12 04:04:38;;;;;;;2.40;0.73;;;;;;;;;;5074653;28;20020;-25
2021/12/12 04:07:09;;;;;;;3.30;0.77;;;;;;;;;;5075313;28;20028;-25
2021/12/12 04:09:38;;;;;;;2.03;0.80;;;;;;;;;;5073960;28;20016;-25
2021/12/12 04:12:08;;;;;;;2.53;0.75;;;;;;;;;;5075064;28;20025;-25
2021/12/12 04:14:37;;;;;;;2.22;0.80;;;;;;;;;;5075407;28;20035;-25
2021/12/12 04:17:08;;;;;;;1.85;0.75;;;;;;;;;;5073791;28;20032;-25
2021/12/12 04:19:35;;;;;;;2.67;0.90;;;;;;;;;;5074726;28;20052;-25
2021/12/12 04:22:01;;;;;;;1.97;0.77;;;;;;;;;;5074697;28;20481;-25
2021/12/12 04:24:33;;;;;;;2.85;1.05;;;;;;;;;;5074911;28;20090;-25
2021/12/12 04:27:01;;;;;;;2.75;0.73;;;;;;;;;;5074681;28;20120;-25
2021/12/12 04:29:36;;;;;;;2.60;0.82;;;;;;;;;;5074909;28;20032;-25
2021/12/12 04:32:13;;;;;;;4.15;1.17;;;;;;;;;;5074795;28;20333;-25
2021/12/12 04:34:40;;;;;;;;;;;;;;;;;;5074986;28;20028;-25
2021/12/12 04:37:09;;;;;;;3.00;0.90;;;;;;;;;;5074780;28;19912;-25
2021/12/12 04:39:38;;;;;;;2.63;1.05;;;;;;;;;;5073489;28;20471;-25
2021/12/12 04:42:12;;;;;;;1.60;0.60;;;;;;;;;;5074364;28;20029;-25
2021/12/12 04:44:40;;;;;;;2.47;1.15;;;;;;;;;;5074372;28;20029;-25
2021/12/12 04:49:57;;;;;;;2.00;0.60;;;;;;;;;;5074467;28;20102;-25
2021/12/12 04:52:31;;;;;;;2.92;0.70;;;;;;;;;;5074210;28;20027;-25
2021/12/12 04:55:03;;;;;;;3.97;1.40;;;;;;;;;;5074645;28;20108;-25
2021/12/12 04:57:37;;;;;;;2.47;0.70;;;;;;;;;;5074588;28;20032;-25
2021/12/12 05:00:08;;;;;;;1.52;0.57;;;;;;;;;;5074292;28;20029;-25
2021/12/12 05:02:50;;;;;;;1.60;0.73;;;;;;;;;;5074464;28;20363;-25
2021/12/12 05:05:22;;;;;;;2.45;0.60;;;;;;;;;;5074112;28;20138;-25
2021/12/12 05:07:51;;;;;;;2.45;0.70;;;;;;;;;;5074572;28;20024;-25
2021/12/12 05:10:38;;;;;;;2.65;0.55;;;;;;;;;;5074488;28;20024;-25
2021/12/12 05:13:11;;;;;;;4.30;0.80;;;;;;;;;;5074328;28;20122;-25
2021/12/12 05:16:00;;;;;;;1.98;0.75;;;;;;;;;;5074195;28;20042;-25
2021/12/12 05:18:32;;;;;;;2.65;0.90;;;;;;;;;;5073189;28;20029;-25
2021/12/12 05:21:24;;;;;;;2.00;0.80;;;;;;;;;;5074153;28;20078;-25
2021/12/12 05:23:52;;;;;;;2.00;0.85;;;;;;;;;;5072142;28;20040;-25
2021/12/12 05:26:26;;;;;;;2.58;0.80;;;;;;;;;;5074296;28;20329;-25
2021/12/12 05:29:06;;;;;;;1.50;0.82;;;;;;;;;;5074516;28;20081;-25
2021/12/12 05:31:33;;;;;;;3.70;1.10;;;;;;;;;;5073978;28;20060;-25
2021/12/12 05:33:59;;;;;;;1.98;0.77;;;;;;;;;;5072915;28;20032;-26
2021/12/12 05:36:27;;;;;;;2.55;0.77;;;;;;;;;;5074218;28;20451;-25
2021/12/12 05:38:56;;;;;;;2.63;0.70;;;;;;;;;;5073933;28;20029;-25
2021/12/12 05:41:24;;;;;;;2.97;1.00;;;;;;;;;;5074210;28;20355;-25
2021/12/12 05:43:53;;;;;;;1.63;0.55;;;;;;;;;;5073974;28;20456;-25
2021/12/12 05:46:20;;;;;;;2.60;0.80;;;;;;;;;;5074259;28;20363;-25
2021/12/12 05:48:47;;;;;;;1.92;0.90;;;;;;;;;;5073233;28;20036;-25
2021/12/12 05:51:16;;;;;;;2.60;0.70;;;;;;;;;;5074663;28;20099;-25
2021/12/12 05:53:43;;;;;;;1.85;0.73;;;;;;;;;;5077485;28;20032;-25
2021/12/12 05:56:11;;;;;;;2.40;0.70;;;;;;;;;;5077570;28;20455;-25
2021/12/12 05:58:37;;;;;;;2.08;0.75;;;;;;;;;;5077757;28;20032;-25
2021/12/12 06:01:08;;;;;;;5.70;1.02;;;;;;;;;;5077677;28;20040;-25
2021/12/12 06:03:38;;;;;;;2.25;0.68;;;;;;;;;;5077450;28;20355;-25
2021/12/12 06:06:13;;;;;;;4.25;1.15;;;;;;;;;;5077191;28;20050;-25
2021/12/12 06:08:40;;;;;;;1.50;0.47;;;;;;;;;;5077548;28;20032;-25
2021/12/12 06:11:08;;;;;;;2.13;0.73;;;;;;;;;;5076214;28;20110;-25
2021/12/12 06:13:36;;;;;;;2.83;0.77;;;;;;;;;;5077376;28;20028;-25
2021/12/12 06:16:03;;;;;;;1.95;0.82;;;;;;;;;;5077146;28;20035;-25
2021/12/12 06:18:31;;;;;;;2.03;0.70;;;;;;;;;;5076166;28;20115;-25
2021/12/12 06:20:59;;;;;;;2.15;0.60;;;;;;;;;;5077276;28;20091;-25
2021/12/12 06:23:27;;;;;;;3.67;0.63;;;;;;;;;;5076950;28;20024;-25
2021/12/12 06:25:53;;;;;;;2.63;0.82;;;;;;;;;;5077003;28;20424;-25
2021/12/12 06:28:24;;;;;;;1.30;0.40;;;;;;;;;;5076975;28;20527;-25
2021/12/12 06:30:52;;;;;;;1.40;0.52;;;;;;;;;;5077224;28;20154;-25
2021/12/12 06:33:21;;;;;;;2.28;0.80;;;;;;;;;;5076805;28;20359;-25
2021/12/12 06:35:47;;;;;;;2.08;0.80;;;;;;;;;;5076823;28;20103;-25
2021/12/12 06:38:16;;;;;;;2.05;0.60;;;;;;;;;;5077036;28;20028;-25
2021/12/12 06:40:44;;;;;;;3.17;1.00;;;;;;;;;;5076999;28;20394;-25
2021/12/12 06:43:12;;;;;;;2.33;0.85;;;;;;;;;;5076637;28;20017;-25
2021/12/12 06:45:39;;;;;;;1.25;0.80;;;;;;;;;;5059149;28;20071;-25
2021/12/12 06:48:06;;;;;;;3.33;0.90;;;;;;;;;;5075607;28;20032;-25
2021/12/12 06:50:34;;;;;;;1.13;0.60;;;;;;;;;;5076536;28;20024;-25
2021/12/12 06:53:01;;;;;;;2.30;0.70;;;;;;;;;;5076459;28;20150;-25
2021/12/12 06:55:30;;;;;;;2.05;0.70;;;;;;;;;;5076226;28;20036;-25
2021/12/12 06:57:56;;;;;;;3.05;0.80;;;;;;;;;;5076628;28;20056;-25
2021/12/12 07:00:25;;;;;;;0.98;0.50;;;;;;;;;;5076235;28;20032;-25
2021/12/12 07:02:51;;;;;;;1.88;0.50;;;;;;;;;;5075334;28;20025;-25
2021/12/12 07:05:21;;;;;;;2.42;0.60;;;;;;;;;;5076007;28;20040;-25
2021/12/12 07:07:48;;;;;;;1.27;0.52;;;;;;;;;;5076232;28;20020;-25
2021/12/12 07:10:15;;;;;;;2.00;0.75;;;;;;;;;;5076167;28;20024;-25
2021/12/12 07:12:44;;;;;;;2.70;0.80;;;;;;;;;;5075950;28;20032;-25
2021/12/12 07:15:13;;;;;;;1.13;0.68;;;;;;;;;;5076319;28;20098;-25
2021/12/12 07:17:40;;;;;;;2.97;0.75;;;;;;;;;;5075990;28;20104;-25
2021/12/12 07:20:07;;;;;;;1.70;0.65;;;;;;;;;;5076207;28;20032;-25
2021/12/12 07:22:34;;;;;;;2.40;0.88;;;;;;;;;;5075847;28;20094;-25
2021/12/12 07:25:03;;;;;;;1.63;0.70;;;;;;;;;;5076047;28;20032;-25
2021/12/12 07:27:30;;;;;;;1.58;0.55;;;;;;;;;;5075847;28;20031;-25
2021/12/12 07:29:58;;;;;;;2.38;0.80;;;;;;;;;;5075732;28;20075;-31
2021/12/12 07:32:26;;;;;;;1.70;0.80;;;;;;;;;;5075651;28;20402;-25
2021/12/12 07:34:54;;;;;;;2.20;1.10;;;;;;;;;;5075882;28;20020;-25
2021/12/12 07:37:21;;;;;;;2.08;1.15;;;;;;;;;;5075919;28;20046;-25
2021/12/12 07:39:48;;;;;;;0.80;0.40;;;;;;;;;;5075821;28;20025;-24
2021/12/12 07:42:17;;;;;;;2.05;0.65;;;;;;;;;;5075393;28;20108;-25
2021/12/12 07:44:44;;;;;;;1.83;0.60;;;;;;;;;;5075303;28;20043;-25
2021/12/12 07:47:10;;;;;;;;;;;;;;;;;;5076112;28;20020;-25
2021/12/12 07:49:41;;;;;;;2.30;0.68;;;;;;;;;;5075373;28;19913;-25
2021/12/12 07:52:10;;;;;;;1.33;0.50;;;;;;;;;;5075539;28;20300;-25
2021/12/12 07:54:37;;;;;;;2.00;0.70;;;;;;;;;;5075261;28;20486;-25
2021/12/12 07:57:04;;;;;;;1.17;0.50;;;;;;;;;;5075150;28;20062;-25
2021/12/12 07:59:30;;;;;;;;;;;;;;;;;;5074604;28;20029;-25
2021/12/12 08:02:00;;;;;;;2.57;0.60;;;;;;;;;;5075130;28;20336;-25
2021/12/12 08:04:27;;;;;;;2.75;0.70;;;;;;;;;;5074659;28;20115;-25
2021/12/12 08:06:54;;;;;;;2.45;0.50;;;;;;;;;;5075080;28;20161;-25
2021/12/12 08:09:22;;;;;;;2.40;0.70;;;;;;;;;;5075071;28;20017;-25
2021/12/12 08:11:49;;;;;;;2.33;0.80;;;;;;;;;;5074910;28;20028;-25
2021/12/12 08:14:18;;;;;;;1.23;0.57;;;;;;;;;;5073646;28;20029;-25
2021/12/12 08:16:46;;;;;;;1.67;0.60;;;;;;;;;;5074252;28;20497;-25
2021/12/12 08:19:12;;;;;;;1.10;0.60;;;;;;;;;;5074248;28;20341;-25
2021/12/12 08:21:39;;;;;;;1.42;0.40;;;;;;;;;;5073759;28;20086;-25
2021/12/12 08:24:07;;;;;;;2.63;0.70;;;;;;;;;;5074842;28;20359;-25
2021/12/12 08:26:35;;;;;;;1.95;0.73;;;;;;;;;;5073679;28;20032;-25
2021/12/12 08:29:01;;;;;;;2.63;0.80;;;;;;;;;;5074930;28;20408;-25
2021/12/12 08:31:28;;;;;;;1.33;0.60;;;;;;;;;;5074381;28;20089;-25
2021/12/12 08:33:56;;;;;;;1.98;0.57;;;;;;;;;;5074542;28;20032;-25
2021/12/12 08:36:22;;;;;;;1.05;0.50;;;;;;;;;;5074812;28;20340;-25
2021/12/12 08:38:49;;;;;;;1.08;0.50;;;;;;;;;;5074849;28;20033;-25
2021/12/12 08:41:16;;;;;;;2.10;0.70;;;;;;;;;;5074513;28;20137;-25
2021/12/12 08:43:43;;;;;;;1.95;0.50;;;;;;;;;;5073325;28;20029;-25
2021/12/12 08:46:15;;;;;;;1.58;0.75;;;;;;;;;;5074771;28;20017;-25
2021/12/12 08:48:44;;;;;;;2.13;0.50;;;;;;;;;;5074707;28;20458;-25
2021/12/12 08:51:18;;;;;;;2.85;1.15;;;;;;;;;;5074413;28;20092;-25
2021/12/12 08:53:49;;;;;;;1.98;0.60;;;;;;;;;;5074623;28;20354;-25
2021/12/12 08:56:29;;;;;;;2.33;0.82;;;;;;;;;;5074383;28;20025;-25
2021/12/12 08:58:56;;;;;;;0.85;0.65;;;;;;;;;;5073173;28;20028;-25
2021/12/12 09:01:24;;;;;;;4.03;0.85;;;;;;;;;;5074618;28;20115;-25
2021/12/12 09:03:54;;;;;;;1.42;0.68;;;;;;;;;;5073165;28;20324;-26
2021/12/12 09:06:27;;;;;;;2.67;0.80;;;;;;;;;;5074026;28;20086;-25
2021/12/12 09:09:07;;;;;;;1.73;0.85;;;;;;;;;;5074577;28;20024;-25
2021/12/12 09:11:44;;;;;;;2.25;0.52;;;;;;;;;;5074570;28;20020;-25
2021/12/12 09:14:13;;;;;;;1.52;0.60;;;;;;;;;;5074159;28;20048;-25
2021/12/12 09:16:46;;;;;;;1.92;0.70;;;;;;;;;;5074450;28;20384;-25
2021/12/12 09:19:21;;;;;;;1.38;0.65;;;;;;;;;;5074047;28;20033;-25
2021/12/12 09:21:51;;;;;;;1.88;0.50;;;;;;;;;;5074381;28;20321;-25
2021/12/12 09:24:43;;;;;;;2.05;0.50;;;;;;;;;;5073022;28;20116;-25
2021/12/12 09:27:13;;;;;;;1.23;0.77;;;;;;;;;;5075162;28;20024;-24
2021/12/12 09:29:56;;;;;;;0.95;0.43;;;;;;;;;;5078329;28;20020;-25
2021/12/12 09:32:27;;;;;;;1.63;0.77;;;;;;;;;;5078220;28;20025;-24
2021/12/12 09:34:56;;;;;;;3.83;0.57;;;;;;;;;;5078214;28;20099;-25
2021/12/12 09:37:35;;;;;;;3.20;0.70;;;;;;;;;;5078175;28;20032;-24
2021/12/12 09:40:08;;;;;;;2.00;0.73;;;;;;;;;;5078128;28;20082;-24
2021/12/12 09:42:50;;;;;;;1.98;0.40;;;;;;;;;;5078026;28;20165;-24
2021/12/12 09:45:18;;;;;;;2.17;0.50;;;;;;;;;;5078000;28;20029;-24
2021/12/12 09:51:14;;;;;;;0.80;0.50;;;;;;;;;;5077637;28;20048;-24
2021/12/12 09:51:14;;;;;;;1.85;0.50;;;;;;;;;;5077605;28;20021;-24
2021/12/12 09:54:00;;;;;;;1.88;0.80;;;;;;;;;;5077671;28;20028;-24
2021/12/12 09:56:59;;;;;;;1.77;0.75;;;;;;;;;;5076579;28;20031;-24
2021/12/12 09:59:44;;;;;;;0.88;0.40;;;;;;;;;;5055201;28;20044;-24
2021/12/12 10:02:20;;;;;;;1.05;0.52;;;;;;;;;;5077628;28;20024;-24
2021/12/12 10:04:54;;;;;;;2.20;0.75;;;;;;;;;;5076108;28;20052;-24
2021/12/12 10:07:29;;;;;;;1.35;0.65;;;;;;;;;;5077604;28;20040;-24
2021/12/12 10:09:58;;;;;;;3.33;0.70;;;;;;;;;;5077585;28;20098;-24
2021/12/12 10:12:30;;;;;;;1.67;0.57;;;;;;;;;;5076158;28;20471;-24
2021/12/12 10:14:59;;;;;;;0.77;0.60;;;;;;;;;;5077464;28;20033;-24
2021/12/12 10:17:29;;;;;;;2.22;0.40;;;;;;;;;;5077077;28;20102;-25
2021/12/12 10:19:57;;;;;;;1.23;0.82;;;;;;;;;;5077273;28;20028;-25
2021/12/12 10:22:36;;;;;;;2.05;0.70;;;;;;;;;;5076951;28;20047;-25
2021/12/12 10:25:06;;;;;;;1.23;0.60;;;;;;;;;;5077200;28;20031;-24
2021/12/12 10:27:42;;;;;;;2.92;0.85;;;;;;;;;;5076956;28;20036;-25
2021/12/12 10:30:11;;;;;;;1.75;0.40;;;;;;;;;;5077032;28;20020;-25
2021/12/12 10:32:48;;;;;;;1.67;0.60;;;;;;;;;;5077043;28;20035;-25
2021/12/12 10:35:17;;;;;;;1.00;0.60;;;;;;;;;;5075879;28;20112;-25
2021/12/12 10:37:50;;;;;;;2.15;0.60;;;;;;;;;;5076708;28;20077;-25
2021/12/12 10:40:21;;;;;;;1.17;0.60;;;;;;;;;;5077059;28;20401;-25
2021/12/12 10:42:49;;;;;;;1.63;0.93;;;;;;;;;;5076960;28;20032;-25
2021/12/12 10:45:21;;;;;;;2.28;0.70;;;;;;;;;;5075548;28;20020;-25
2021/12/12 10:47:51;;;;;;;1.42;0.70;;;;;;;;;;5077406;28;20028;-25
2021/12/12 10:50:20;;;;;;;0.60;0.28;;;;;;;;;;5076583;28;20471;-25
2021/12/12 10:52:53;;;;;;;1.77;0.50;;;;;;;;;;5076463;28;20036;-25
2021/12/12 10:55:38;;;;;;;2.05;0.52;;;;;;;;;;5076825;28;20361;-25
2021/12/12 10:58:16;;;;;;;2.05;0.40;;;;;;;;;;5075432;28;20036;-25
2021/12/12 11:00:49;;;;;;;0.75;0.40;;;;;;;;;;5076665;28;20028;-25
2021/12/12 11:03:24;;;;;;;2.10;0.70;;;;;;;;;;5075257;28;20032;-25
2021/12/12 11:05:56;;;;;;;1.10;0.50;;;;;;;;;;5076202;28;20131;-25
2021/12/12 11:08:25;;;;;;;1.33;0.50;;;;;;;;;;5076467;28;20033;-25
2021/12/12 11:10:55;;;;;;;2.35;0.50;;;;;;;;;;5076174;28;20456;-25
2021/12/12 11:13:36;;;;;;;2.08;0.60;;;;;;;;;;5076360;28;20036;-25
2021/12/12 11:16:10;;;;;;;1.42;0.50;;;;;;;;;;5075028;28;20155;-25
2021/12/12 11:18:45;;;;;;;1.10;0.50;;;;;;;;;;5076064;28;20021;-25
2021/12/12 11:21:21;;;;;;;0.68;0.50;;;;;;;;;;5076248;28;20051;-25
2021/12/12 11:23:50;;;;;;;1.10;0.55;;;;;;;;;;5075966;28;20446;-25
2021/12/12 11:26:23;;;;;;;1.63;0.50;;;;;;;;;;5074855;28;20051;-25
2021/12/12 11:28:54;;;;;;;1.42;0.60;;;;;;;;;;5076164;28;20467;-25
2021/12/12 11:31:41;;;;;;;1.55;0.93;;;;;;;;;;5076060;28;20020;-25
2021/12/12 11:34:09;;;;;;;0.82;0.30;;;;;;;;;;5068501;28;20037;-25
2021/12/12 11:36:46;;;;;;;1.38;0.52;;;;;;;;;;5075614;28;20031;-25
2021/12/12 11:39:15;;;;;;;1.38;0.63;;;;;;;;;;5074553;28;20037;-24
2021/12/12 11:41:48;;;;;;;1.10;0.60;;;;;;;;;;5075755;28;20414;-24
2021/12/12 11:44:24;;;;;;;1.42;0.60;;;;;;;;;;5075692;28;20115;-24
2021/12/12 11:46:53;;;;;;;1.55;0.50;;;;;;;;;;5074416;28;20025;-24
2021/12/12 11:49:26;;;;;;;2.20;0.45;;;;;;;;;;5074829;28;20016;-24
2021/12/12 11:51:59;;;;;;;0.88;0.50;;;;;;;;;;5075204;28;20033;-25
2021/12/12 11:54:33;;;;;;;1.90;0.52;;;;;;;;;;5075570;28;20021;-24
2021/12/12 11:57:19;;;;;;;2.17;0.80;;;;;;;;;;5075232;28;20043;-25
2021/12/12 11:59:55;;;;;;;0.90;0.40;;;;;;;;;;5074144;28;20098;-24
2021/12/12 12:02:37;;;;;;;1.00;0.50;;;;;;;;;;5075022;28;20111;-25
2021/12/12 12:05:10;;;;;;;2.17;1.10;;;;;;;;;;5074995;28;20105;-27
2021/12/12 12:07:54;;;;;;;1.02;0.50;;;;;;;;;;5075282;28;20536;-30
2021/12/12 12:10:21;;;;;;;1.13;0.50;;;;;;;;;;5075019;28;20025;-27
2021/12/12 12:13:03;;;;;;;2.30;0.50;;;;;;;;;;5074955;28;20028;-26
2021/12/12 12:15:58;;;;;;;1.17;0.45;;;;;;;;;;5074933;28;20099;-25
2021/12/12 12:18:31;;;;;;;0.95;0.43;;;;;;;;;;5073944;28;20483;-26
2021/12/12 12:21:09;;;;;;;1.23;0.40;;;;;;;;;;5075094;28;20031;-28
2021/12/12 12:24:10;;;;;;;1.08;0.40;;;;;;;;;;5074654;28;20032;-30
2021/12/12 12:26:52;;;;;;;1.80;0.52;;;;;;;;;;5074699;28;20029;-26
2021/12/12 12:29:30;;;;;;;0.93;0.30;;;;;;;;;;5073801;28;20035;-27
2021/12/12 12:32:03;;;;;;;0.98;0.43;;;;;;;;;;5074581;28;20016;-30
2021/12/12 12:34:48;;;;;;;0.90;0.50;;;;;;;;;;5074663;28;20209;-23
2021/12/12 12:37:33;;;;;;;0.63;0.38;;;;;;;;;;5074626;28;20035;-25
2021/12/12 12:40:18;;;;;;;1.15;0.50;;;;;;;;;;5074849;28;20485;-27
2021/12/12 12:43:14;;;;;;;2.08;0.60;;;;;;;;;;5074455;28;20119;-28
2021/12/12 12:45:41;;;;;;;;;;;;;;;;;;5074816;28;20404;-25
2021/12/12 12:48:13;;;;;;;2.00;0.87;;;;;;;;;;5074766;28;20267;-23
2021/12/12 12:51:11;;;;;;;3.28;0.75;;;;;;;;;;5074698;28;20036;-27
2021/12/12 12:53:56;;;;;;;1.73;0.65;;;;;;;;;;5051883;28;20464;-29
2021/12/12 12:56:41;;;;;;;2.33;0.50;;;;;;;;;;5074649;28;20405;-24
2021/12/12 12:59:08;;;;;;;1.05;0.40;;;;;;;;;;5074262;28;20107;-28
2021/12/12 13:01:43;;;;;;;1.67;0.50;;;;;;;;;;5073617;28;20040;-30
2021/12/12 13:04:15;;;;;;;1.10;0.40;;;;;;;;;;5074423;28;20024;-31
2021/12/12 13:06:54;;;;;;;1.50;0.40;;;;;;;;;;5074155;28;20056;-27
2021/12/12 13:09:25;;;;;;;0.82;0.40;;;;;;;;;;5074544;28;20025;-28
2021/12/12 13:11:54;;;;;;;1.13;0.68;;;;;;;;;;5074509;28;20036;-27
2021/12/12 13:14:39;;;;;;;1.17;0.47;;;;;;;;;;5074541;28;20035;-29
2021/12/12 13:17:21;;;;;;;0.70;0.50;;;;;;;;;;5074429;28;20036;-27
2021/12/12 13:19:57;;;;;;;1.50;0.40;;;;;;;;;;5074129;28;20039;-29
2021/12/12 13:22:29;;;;;;;1.48;0.45;;;;;;;;;;5074072;28;20362;-31
2021/12/12 13:24:57;;;;;;;1.20;0.40;;;;;;;;;;5073988;28;20122;-24
2021/12/12 13:27:49;;;;;;;1.10;0.60;;;;;;;;;;5074120;28;20028;-25
2021/12/12 13:30:27;;;;;;;1.58;0.40;;;;;;;;;;5073119;28;20349;-27
2021/12/12 13:32:57;;;;;;;0.95;0.60;;;;;;;;;;5074209;28;20048;-31
2021/12/12 13:35:37;;;;;;;1.15;0.50;;;;;;;;;;5073951;28;20051;-28
2021/12/12 13:38:12;;;;;;;2.15;0.50;;;;;;;;;;5074231;28;20099;-28
2021/12/12 13:40:38;;;;;;;2.10;0.50;;;;;;;;;;5073924;28;20024;-31
2021/12/12 13:43:08;;;;;;;0.90;0.40;;;;;;;;;;5073871;28;20094;-30
2021/12/12 13:45:40;;;;;;;2.10;0.75;;;;;;;;;;5074131;28;20032;-32
2021/12/12 13:48:09;;;;;;;1.08;0.57;;;;;;;;;;5073892;28;20028;-28
2021/12/12 13:50:56;;;;;;;1.63;0.60;;;;;;;;;;5073868;28;20355;-25
2021/12/12 13:53:36;;;;;;;0.57;0.40;;;;;;;;;;5073866;28;20032;-28
2021/12/12 13:56:16;;;;;;;1.63;0.60;;;;;;;;;;5074131;28;20029;-30
2021/12/12 13:58:58;;;;;;;2.45;0.60;;;;;;;;;;5072842;28;20060;-26
2021/12/12 14:01:35;;;;;;;2.85;0.82;;;;;;;;;;5073735;28;20032;-30
2021/12/12 14:04:08;;;;;;;2.13;0.63;;;;;;;;;;5073646;28;20036;-27
2021/12/12 14:06:36;;;;;;;1.85;0.47;;;;;;;;;;5073622;28;20117;-28
2021/12/12 14:09:07;;;;;;;0.90;0.40;;;;;;;;;;5073977;28;20021;-30
2021/12/12 14:11:36;;;;;;;0.55;0.40;;;;;;;;;;5072680;28;20024;-29
2021/12/12 14:14:26;;;;;;;1.02;0.50;;;;;;;;;;5076788;28;20111;-28
2021/12/12 14:16:56;;;;;;;1.15;0.40;;;;;;;;;;5071946;28;20045;-30
2021/12/12 14:19:31;;;;;;;1.25;0.43;;;;;;;;;;5076105;28;20541;-30
2021/12/12 14:21:58;;;;;;;0.32;0.30;;;;;;;;;;5076022;28;20089;-32
2021/12/12 14:24:26;;;;;;;1.70;0.67;;;;;;;;;;5076976;28;20020;-33
2021/12/12 14:26:55;;;;;;;0.85;0.50;;;;;;;;;;5076009;28;20024;-27
2021/12/12 14:29:23;;;;;;;1.25;0.50;;;;;;;;;;5076958;28;20025;-27
2021/12/12 14:31:51;;;;;;;1.35;0.45;;;;;;;;;;5077136;28;20113;-25
2021/12/12 14:34:22;;;;;;;0.73;0.40;;;;;;;;;;5077156;28;20021;-29
2021/12/12 14:36:50;;;;;;;1.50;0.50;;;;;;;;;;5076915;28;20067;-30
2021/12/12 14:39:21;;;;;;;0.60;0.43;;;;;;;;;;5077035;28;20090;-32
2021/12/12 14:42:00;;;;;;;1.50;0.30;;;;;;;;;;5077311;28;20048;-31
2021/12/12 14:44:33;;;;;;;1.25;0.38;;;;;;;;;;5076949;28;20031;-32
2021/12/12 14:47:08;;;;;;;0.70;0.40;;;;;;;;;;5076653;28;20020;-26
2021/12/12 14:49:38;;;;;;;1.30;0.85;;;;;;;;;;5076945;28;20044;-28
2021/12/12 14:52:25;;;;;;;0.93;0.40;;;;;;;;;;5075529;28;20466;-26
2021/12/12 14:54:57;;;;;;;1.00;0.35;;;;;;;;;;5076740;28;20078;-29
2021/12/12 14:57:31;;;;;;;1.13;0.40;;;;;;;;;;5076523;28;20035;-28
2021/12/12 15:00:00;;;;;;;0.57;0.40;;;;;;;;;;5075526;28;20028;-29
2021/12/12 15:02:28;;;;;;;0.50;0.30;;;;;;;;;;5076340;28;20044;-29
2021/12/12 15:05:01;;;;;;;0.80;0.50;;;;;;;;;;5076078;28;20037;-31
2021/12/12 15:07:31;;;;;;;1.27;0.60;;;;;;;;;;5076287;28;20047;-29
2021/12/12 15:10:05;;;;;;;1.40;0.40;;;;;;;;;;5076597;28;20024;-31
2021/12/12 15:12:37;;;;;;;0.88;0.30;;;;;;;;;;5076125;28;20020;-32
2021/12/12 15:15:07;;;;;;;2.83;0.60;;;;;;;;;;5076460;28;20442;-30
2021/12/12 15:17:37;;;;;;;1.08;0.40;;;;;;;;;;5076099;28;20028;-28
2021/12/12 15:20:11;;;;;;;2.65;0.45;;;;;;;;;;5076273;28;20037;-27
2021/12/12 15:22:40;;;;;;;2.88;0.80;;;;;;;;;;5076164;28;20029;-27
2021/12/12 15:25:12;;;;;;;1.23;0.40;;;;;;;;;;5074969;28;20021;-30
2021/12/12 15:27:42;;;;;;;0.65;0.30;;;;;;;;;;5076195;28;20363;-31
2021/12/12 15:30:11;;;;;;;1.20;0.45;;;;;;;;;;5076104;28;20016;-29